Nashville, TN

3:55 AM CST on December 21, 2014 (GMT -0600)
Madison | Change Station
CLOSE
Current Station
Personal Weather Station
Location: Madison, TN
Elevation: 676 ft
Nearby Weather Stations

Elev 676 ft 36.26 °N, 86.74 °W | Updated 30 seconds ago

Clear
Clear
32.5 °F
Feels Like 32 °F
N
0.0
Wind Variable Wind from West
Gusts 0.0 mph

Today
High -- | Low -- °F
--% Chance of Precip.
Yesterday
High -- | Low -- °F
Precip. -- in
6:54 AM 4:35 PM
Waning Crescent, 1% visible
Pressure 30.27 in
Visibility 6.0 miles
Clouds Clear
Windchill 32 °F
Dew Point 28 °F
Humidity 82%
Rainfall 0.00 in
Snow Depth Not available.
UV 0 out of 12
Pollen .10 out of 12
Air Quality Not available.
Flu Activity Not available.
METAR KBNA 210853Z 00000KT 6SM BR CLR M02/M04 A3026 RMK AO2 SLP251 T10221039 55002

More Conditions Fewer Conditions

Pressure 30.27 in
Visibility 6.0 miles
Clouds Clear
Windchill 32 °F
Dew Point 28 °F
Humidity 82%
Rainfall 0.00 in
Snow Depth Not available.
UV 0 out of 12
Pollen .10 out of 12
Air Quality Not available.
Flu Activity Not available.
METAR KBNA 210853Z 00000KT 6SM BR CLR M02/M04 A3026 RMK AO2 SLP251 T10221039 55002

More Conditions Fewer Conditions

10-Day Weather Forecast

Almanac

Astronomy

Dec. 21, 2014 Rise Set
Actual Time
Civil Twilight
Nautical Twilight
Astronomical Twilight
Moon
Length of Visible Light
Length of Day
Tomorrow will be .
, % of the Moon is Illuminated

Today's Extremes

State Highs State Lows

Community

WunderPhotos

Upload Photos

1,779,364 photos uploaded!

WunderBlogs® & News

Nearby

Air Quality

  Air Quality AQ Index Pollutant
Not available.

Snow Depth

Station Depth Elevation

Earthquake Activity

City Distance Mag. Time & Date
Minimum magnitude displayed is 2.5.

Coastal Water Temperatures

Place Temperature

Nearby Weather Stations